Makah AFB, Washington
Current Conditions -  °F | °C
As of 10:35 PM on Wednesday 22 Oct 2014 (Local Time) from KUIL Reporting Station
Light Rain Light Rain  
Wind Chill: 50°   Ceiling: 3000
Heat Index: 50°   Visibility: 1.5mi
Dew Point: 49°   Wind: 10mph
Humidity: 96%   Direction: 230°SW
Pressure: 29.6"   Gusts: 23mph
Location:  48.3685°N, 124.623°W
Report Text: KUIL 230535Z AUTO 23009G20KT 1 1/2SM -RA BR SCT019 BKN030 OVC050 10/09 A2960 RMK AO2 RAB17 P0025 T01000094
Loading
Personal Weather Stations






























Interactive Weather Map
Tropical Storm Tracking
New forecast layout! Learn more

10-Day Weather Forecast

Advertisements
Track Severe Weather on mobile